sensor_id;sensor_type;location;lat;lon;timestamp;temperature;humidity
13992;DHT22;7070;53.586;9.692;2023-03-19T00:01:46;9.80;88.90
13992;DHT22;7070;53.586;9.692;2023-03-19T00:04:12;9.80;88.30
13992;DHT22;7070;53.586;9.692;2023-03-19T00:06:40;9.80;88.40
13992;DHT22;7070;53.586;9.692;2023-03-19T00:09:07;9.80;88.30
13992;DHT22;7070;53.586;9.692;2023-03-19T00:11:34;9.90;88.40
13992;DHT22;7070;53.586;9.692;2023-03-19T00:14:02;9.80;88.20
13992;DHT22;7070;53.586;9.692;2023-03-19T00:16:29;9.80;88.00
13992;DHT22;7070;53.586;9.692;2023-03-19T00:18:56;9.80;88.00
13992;DHT22;7070;53.586;9.692;2023-03-19T00:21:23;9.70;87.90
13992;DHT22;7070;53.586;9.692;2023-03-19T00:23:50;9.70;87.90
13992;DHT22;7070;53.586;9.692;2023-03-19T00:26:17;9.60;87.90
13992;DHT22;7070;53.586;9.692;2023-03-19T00:28:44;9.50;87.80
13992;DHT22;7070;53.586;9.692;2023-03-19T00:31:13;9.50;87.90
13992;DHT22;7070;53.586;9.692;2023-03-19T00:33:41;9.50;87.90
13992;DHT22;7070;53.586;9.692;2023-03-19T00:36:09;9.50;88.00
13992;DHT22;7070;53.586;9.692;2023-03-19T00:38:36;9.30;87.90
13992;DHT22;7070;53.586;9.692;2023-03-19T00:41:04;9.30;87.90
13992;DHT22;7070;53.586;9.692;2023-03-19T00:43:32;9.20;88.00
13992;DHT22;7070;53.586;9.692;2023-03-19T00:45:59;9.20;88.10
13992;DHT22;7070;53.586;9.692;2023-03-19T00:48:27;9.20;88.20
13992;DHT22;7070;53.586;9.692;2023-03-19T00:50:55;9.10;88.20
13992;DHT22;7070;53.586;9.692;2023-03-19T00:53:22;9.10;88.20
13992;DHT22;7070;53.586;9.692;2023-03-19T00:55:48;9.00;88.30
13992;DHT22;7070;53.586;9.692;2023-03-19T00:58:15;9.00;88.30
13992;DHT22;7070;53.586;9.692;2023-03-19T01:00:42;9.00;88.40
13992;DHT22;7070;53.586;9.692;2023-03-19T01:03:09;8.90;88.40
13992;DHT22;7070;53.586;9.692;2023-03-19T01:05:38;8.90;88.60
13992;DHT22;7070;53.586;9.692;2023-03-19T01:08:04;8.90;88.60
13992;DHT22;7070;53.586;9.692;2023-03-19T01:10:33;8.80;88.70
13992;DHT22;7070;53.586;9.692;2023-03-19T01:13:00;8.80;88.80
13992;DHT22;7070;53.586;9.692;2023-03-19T01:15:27;8.80;88.90
13992;DHT22;7070;53.586;9.692;2023-03-19T01:17:54;8.70;88.90
13992;DHT22;7070;53.586;9.692;2023-03-19T01:20:21;8.70;88.90
13992;DHT22;7070;53.586;9.692;2023-03-19T01:22:50;8.80;89.10
13992;DHT22;7070;53.586;9.692;2023-03-19T01:25:17;8.70;89.10
13992;DHT22;7070;53.586;9.692;2023-03-19T01:27:44;8.70;89.10
13992;DHT22;7070;53.586;9.692;2023-03-19T01:30:11;8.70;89.40
13992;DHT22;7070;53.586;9.692;2023-03-19T01:32:38;8.80;89.70
13992;DHT22;7070;53.586;9.692;2023-03-19T01:35:05;8.80;89.90
13992;DHT22;7070;53.586;9.692;2023-03-19T01:37:32;8.80;90.00
13992;DHT22;7070;53.586;9.692;2023-03-19T01:40:00;8.90;90.10
13992;DHT22;7070;53.586;9.692;2023-03-19T01:42:28;9.00;90.20
13992;DHT22;7070;53.586;9.692;2023-03-19T01:44:58;9.00;90.20
13992;DHT22;7070;53.586;9.692;2023-03-19T01:47:30;9.10;90.30
13992;DHT22;7070;53.586;9.692;2023-03-19T01:49:58;9.20;90.30
13992;DHT22;7070;53.586;9.692;2023-03-19T01:52:29;9.20;90.20
13992;DHT22;7070;53.586;9.692;2023-03-19T01:55:00;9.30;90.30
13992;DHT22;7070;53.586;9.692;2023-03-19T01:57:29;9.30;90.30
13992;DHT22;7070;53.586;9.692;2023-03-19T01:59:59;9.40;90.30
13992;DHT22;7070;53.586;9.692;2023-03-19T02:02:28;9.40;90.30
13992;DHT22;7070;53.586;9.692;2023-03-19T02:04:57;9.50;90.60
13992;DHT22;7070;53.586;9.692;2023-03-19T02:07:28;9.40;90.20
13992;DHT22;7070;53.586;9.692;2023-03-19T02:09:56;9.40;90.10
13992;DHT22;7070;53.586;9.692;2023-03-19T02:12:25;9.40;90.10
13992;DHT22;7070;53.586;9.692;2023-03-19T02:14:52;9.40;90.10
13992;DHT22;7070;53.586;9.692;2023-03-19T02:17:19;9.40;90.00
13992;DHT22;7070;53.586;9.692;2023-03-19T02:19:52;9.40;90.00
13992;DHT22;7070;53.586;9.692;2023-03-19T02:22:24;9.40;89.90
13992;DHT22;7070;53.586;9.692;2023-03-19T02:24:56;9.30;89.90
13992;DHT22;7070;53.586;9.692;2023-03-19T02:27:25;9.20;89.80
13992;DHT22;7070;53.586;9.692;2023-03-19T02:29:52;9.20;89.90
13992;DHT22;7070;53.586;9.692;2023-03-19T02:32:19;9.10;89.90
13992;DHT22;7070;53.586;9.692;2023-03-19T02:34:47;9.10;89.90
13992;DHT22;7070;53.586;9.692;2023-03-19T02:37:18;9.10;90.00
13992;DHT22;7070;53.586;9.692;2023-03-19T02:39:53;9.10;90.00
13992;DHT22;7070;53.586;9.692;2023-03-19T02:42:22;9.00;89.90
13992;DHT22;7070;53.586;9.692;2023-03-19T02:44:50;9.00;89.90
13992;DHT22;7070;53.586;9.692;2023-03-19T02:47:17;9.00;90.00
13992;DHT22;7070;53.586;9.692;2023-03-19T02:49:45;8.90;89.90
13992;DHT22;7070;53.586;9.692;2023-03-19T02:52:12;8.90;90.00
13992;DHT22;7070;53.586;9.692;2023-03-19T02:54:39;8.90;90.00
13992;DHT22;7070;53.586;9.692;2023-03-19T02:57:06;8.90;90.10
13992;DHT22;7070;53.586;9.692;2023-03-19T02:59:33;8.80;90.10
13992;DHT22;7070;53.586;9.692;2023-03-19T03:02:02;8.80;90.00
13992;DHT22;7070;53.586;9.692;2023-03-19T03:04:29;8.80;90.10
13992;DHT22;7070;53.586;9.692;2023-03-19T03:06:56;8.80;90.00
13992;DHT22;7070;53.586;9.692;2023-03-19T03:09:23;8.70;90.10
13992;DHT22;7070;53.586;9.692;2023-03-19T03:11:51;8.80;90.10
13992;DHT22;7070;53.586;9.692;2023-03-19T03:14:18;8.70;90.10
13992;DHT22;7070;53.586;9.692;2023-03-19T03:16:45;8.80;90.20
13992;DHT22;7070;53.586;9.692;2023-03-19T03:19:13;8.80;90.30
13992;DHT22;7070;53.586;9.692;2023-03-19T03:21:40;8.80;90.40
13992;DHT22;7070;53.586;9.692;2023-03-19T03:24:07;8.80;90.40
13992;DHT22;7070;53.586;9.692;2023-03-19T03:26:35;8.80;90.40
13992;DHT22;7070;53.586;9.692;2023-03-19T03:29:03;8.90;90.40
13992;DHT22;7070;53.586;9.692;2023-03-19T03:31:30;8.90;90.40
13992;DHT22;7070;53.586;9.692;2023-03-19T03:33:57;9.00;90.50
13992;DHT22;7070;53.586;9.692;2023-03-19T03:36:26;9.00;90.50
13992;DHT22;7070;53.586;9.692;2023-03-19T03:38:54;9.00;90.50
13992;DHT22;7070;53.586;9.692;2023-03-19T03:41:21;9.10;90.50
13992;DHT22;7070;53.586;9.692;2023-03-19T03:43:48;9.00;90.50
13992;DHT22;7070;53.586;9.692;2023-03-19T03:46:15;9.00;90.40
13992;DHT22;7070;53.586;9.692;2023-03-19T03:48:42;9.10;90.50
13992;DHT22;7070;53.586;9.692;2023-03-19T03:51:10;9.10;90.50
13992;DHT22;7070;53.586;9.692;2023-03-19T03:53:39;9.10;90.50
13992;DHT22;7070;53.586;9.692;2023-03-19T03:56:06;9.20;90.60
13992;DHT22;7070;53.586;9.692;2023-03-19T03:58:33;9.20;90.60
13992;DHT22;7070;53.586;9.692;2023-03-19T04:00:59;9.30;90.70
13992;DHT22;7070;53.586;9.692;2023-03-19T04:03:26;9.30;90.70
13992;DHT22;7070;53.586;9.692;2023-03-19T04:05:53;9.30;90.70
13992;DHT22;7070;53.586;9.692;2023-03-19T04:08:21;9.30;90.70
13992;DHT22;7070;53.586;9.692;2023-03-19T04:10:49;9.40;90.60
13992;DHT22;7070;53.586;9.692;2023-03-19T04:13:16;9.40;90.70
13992;DHT22;7070;53.586;9.692;2023-03-19T04:15:43;9.40;90.60
13992;DHT22;7070;53.586;9.692;2023-03-19T04:18:11;9.40;90.60
13992;DHT22;7070;53.586;9.692;2023-03-19T04:20:38;9.50;90.70
13992;DHT22;7070;53.586;9.692;2023-03-19T04:23:05;9.50;90.60
13992;DHT22;7070;53.586;9.692;2023-03-19T04:25:32;9.50;90.60
13992;DHT22;7070;53.586;9.692;2023-03-19T04:28:01;9.40;90.50
13992;DHT22;7070;53.586;9.692;2023-03-19T04:30:28;9.40;90.50
13992;DHT22;7070;53.586;9.692;2023-03-19T04:32:55;9.40;90.50
13992;DHT22;7070;53.586;9.692;2023-03-19T04:35:22;9.30;90.70
13992;DHT22;7070;53.586;9.692;2023-03-19T04:37:49;9.40;90.50
13992;DHT22;7070;53.586;9.692;2023-03-19T04:40:16;9.30;90.50
13992;DHT22;7070;53.586;9.692;2023-03-19T04:42:43;9.30;90.50
13992;DHT22;7070;53.586;9.692;2023-03-19T04:45:12;9.30;90.50
13992;DHT22;7070;53.586;9.692;2023-03-19T04:47:39;9.30;90.50
13992;DHT22;7070;53.586;9.692;2023-03-19T04:50:08;9.20;90.50
13992;DHT22;7070;53.586;9.692;2023-03-19T04:52:35;9.20;90.40
13992;DHT22;7070;53.586;9.692;2023-03-19T04:55:02;9.30;90.50
13992;DHT22;7070;53.586;9.692;2023-03-19T04:57:29;9.10;90.40
13992;DHT22;7070;53.586;9.692;2023-03-19T04:59:56;9.10;90.50
13992;DHT22;7070;53.586;9.692;2023-03-19T05:02:25;9.20;90.70
13992;DHT22;7070;53.586;9.692;2023-03-19T05:04:52;9.10;90.70
13992;DHT22;7070;53.586;9.692;2023-03-19T05:07:19;9.20;90.80
13992;DHT22;7070;53.586;9.692;2023-03-19T05:09:46;9.20;90.90
13992;DHT22;7070;53.586;9.692;2023-03-19T05:12:13;9.30;90.90
13992;DHT22;7070;53.586;9.692;2023-03-19T05:14:40;9.30;90.90
13992;DHT22;7070;53.586;9.692;2023-03-19T05:17:07;9.40;91.00
13992;DHT22;7070;53.586;9.692;2023-03-19T05:19:37;9.40;91.00
13992;DHT22;7070;53.586;9.692;2023-03-19T05:22:04;9.50;91.00
13992;DHT22;7070;53.586;9.692;2023-03-19T05:24:31;9.50;91.00
13992;DHT22;7070;53.586;9.692;2023-03-19T05:26:58;9.50;90.90
13992;DHT22;7070;53.586;9.692;2023-03-19T05:29:25;9.60;90.90
13992;DHT22;7070;53.586;9.692;2023-03-19T05:31:52;9.50;90.70
13992;DHT22;7070;53.586;9.692;2023-03-19T05:34:19;9.50;90.70
13992;DHT22;7070;53.586;9.692;2023-03-19T05:36:47;9.50;90.60
13992;DHT22;7070;53.586;9.692;2023-03-19T05:39:14;9.50;90.60
13992;DHT22;7070;53.586;9.692;2023-03-19T05:41:41;9.40;90.50
13992;DHT22;7070;53.586;9.692;2023-03-19T05:44:08;9.40;90.50
13992;DHT22;7070;53.586;9.692;2023-03-19T05:46:35;9.40;90.50
13992;DHT22;7070;53.586;9.692;2023-03-19T05:49:02;9.20;90.80
13992;DHT22;7070;53.586;9.692;2023-03-19T05:51:29;9.30;90.50
13992;DHT22;7070;53.586;9.692;2023-03-19T05:53:57;9.20;90.50
13992;DHT22;7070;53.586;9.692;2023-03-19T05:56:24;9.20;90.50
13992;DHT22;7070;53.586;9.692;2023-03-19T05:58:51;9.20;90.50
13992;DHT22;7070;53.586;9.692;2023-03-19T06:01:18;9.10;90.50
13992;DHT22;7070;53.586;9.692;2023-03-19T06:03:45;9.10;90.60
13992;DHT22;7070;53.586;9.692;2023-03-19T06:06:12;9.10;90.60
13992;DHT22;7070;53.586;9.692;2023-03-19T06:08:39;9.10;90.70
13992;DHT22;7070;53.586;9.692;2023-03-19T06:11:07;9.10;90.70
13992;DHT22;7070;53.586;9.692;2023-03-19T06:13:34;9.20;90.80
13992;DHT22;7070;53.586;9.692;2023-03-19T06:16:01;9.20;90.80
13992;DHT22;7070;53.586;9.692;2023-03-19T06:18:28;9.20;90.90
13992;DHT22;7070;53.586;9.692;2023-03-19T06:20:55;9.30;90.90
13992;DHT22;7070;53.586;9.692;2023-03-19T06:23:22;9.30;90.90
13992;DHT22;7070;53.586;9.692;2023-03-19T06:25:49;9.40;91.00
13992;DHT22;7070;53.586;9.692;2023-03-19T06:28:17;9.40;91.00
13992;DHT22;7070;53.586;9.692;2023-03-19T06:30:44;9.40;91.00
13992;DHT22;7070;53.586;9.692;2023-03-19T06:33:11;9.60;91.10
13992;DHT22;7070;53.586;9.692;2023-03-19T06:35:39;9.60;91.00
13992;DHT22;7070;53.586;9.692;2023-03-19T06:38:06;9.70;91.10
13992;DHT22;7070;53.586;9.692;2023-03-19T06:40:33;9.70;91.40
13992;DHT22;7070;53.586;9.692;2023-03-19T06:43:00;9.80;91.10
13992;DHT22;7070;53.586;9.692;2023-03-19T06:45:28;9.90;91.20
13992;DHT22;7070;53.586;9.692;2023-03-19T06:47:55;10.00;90.70
13992;DHT22;7070;53.586;9.692;2023-03-19T06:50:22;10.00;90.70
13992;DHT22;7070;53.586;9.692;2023-03-19T06:52:49;10.20;90.80
13992;DHT22;7070;53.586;9.692;2023-03-19T06:55:16;10.20;90.80
13992;DHT22;7070;53.586;9.692;2023-03-19T06:57:47;10.20;90.70
13992;DHT22;7070;53.586;9.692;2023-03-19T07:00:16;10.30;91.10
13992;DHT22;7070;53.586;9.692;2023-03-19T07:02:45;10.40;90.80
13992;DHT22;7070;53.586;9.692;2023-03-19T07:05:12;10.40;90.70
13992;DHT22;7070;53.586;9.692;2023-03-19T07:07:39;10.50;90.80
13992;DHT22;7070;53.586;9.692;2023-03-19T07:10:07;10.60;90.80
13992;DHT22;7070;53.586;9.692;2023-03-19T07:12:34;10.60;90.80
13992;DHT22;7070;53.586;9.692;2023-03-19T07:15:01;10.70;90.80
13992;DHT22;7070;53.586;9.692;2023-03-19T07:17:29;10.70;90.80
13992;DHT22;7070;53.586;9.692;2023-03-19T07:19:57;10.80;90.80
13992;DHT22;7070;53.586;9.692;2023-03-19T07:22:24;10.90;90.80
13992;DHT22;7070;53.586;9.692;2023-03-19T07:24:51;10.90;90.80
13992;DHT22;7070;53.586;9.692;2023-03-19T07:27:18;11.00;90.80
13992;DHT22;7070;53.586;9.692;2023-03-19T07:29:45;11.10;90.90
13992;DHT22;7070;53.586;9.692;2023-03-19T07:32:12;11.20;90.90
13992;DHT22;7070;53.586;9.692;2023-03-19T07:34:39;11.20;90.80
13992;DHT22;7070;53.586;9.692;2023-03-19T07:37:07;11.30;90.80
13992;DHT22;7070;53.586;9.692;2023-03-19T07:39:34;11.50;90.90
13992;DHT22;7070;53.586;9.692;2023-03-19T07:42:01;11.60;90.90
13992;DHT22;7070;53.586;9.692;2023-03-19T07:44:28;11.60;90.90
13992;DHT22;7070;53.586;9.692;2023-03-19T07:46:55;11.80;90.90
13992;DHT22;7070;53.586;9.692;2023-03-19T07:49:22;12.00;90.90
13992;DHT22;7070;53.586;9.692;2023-03-19T07:51:49;12.00;90.80
13992;DHT22;7070;53.586;9.692;2023-03-19T07:54:17;12.10;90.80
13992;DHT22;7070;53.586;9.692;2023-03-19T07:56:44;12.20;90.80
13992;DHT22;7070;53.586;9.692;2023-03-19T07:59:11;12.30;90.80
13992;DHT22;7070;53.586;9.692;2023-03-19T08:01:38;12.40;90.80
13992;DHT22;7070;53.586;9.692;2023-03-19T08:04:05;12.50;90.70
13992;DHT22;7070;53.586;9.692;2023-03-19T08:06:32;12.60;90.70
13992;DHT22;7070;53.586;9.692;2023-03-19T08:08:59;12.70;90.60
13992;DHT22;7070;53.586;9.692;2023-03-19T08:11:27;12.70;90.60
13992;DHT22;7070;53.586;9.692;2023-03-19T08:13:55;12.90;90.60
13992;DHT22;7070;53.586;9.692;2023-03-19T08:16:22;13.00;90.60
13992;DHT22;7070;53.586;9.692;2023-03-19T08:18:49;13.00;90.60
13992;DHT22;7070;53.586;9.692;2023-03-19T08:21:16;13.10;90.60
13992;DHT22;7070;53.586;9.692;2023-03-19T08:23:43;13.30;90.60
13992;DHT22;7070;53.586;9.692;2023-03-19T08:26:10;13.40;90.90
13992;DHT22;7070;53.586;9.692;2023-03-19T08:28:38;13.50;90.50
13992;DHT22;7070;53.586;9.692;2023-03-19T08:31:06;13.60;90.50
13992;DHT22;7070;53.586;9.692;2023-03-19T08:33:33;13.70;90.50
13992;DHT22;7070;53.586;9.692;2023-03-19T08:36:05;13.80;90.50
13992;DHT22;7070;53.586;9.692;2023-03-19T08:38:32;13.90;90.50
13992;DHT22;7070;53.586;9.692;2023-03-19T08:40:59;14.10;90.50
13992;DHT22;7070;53.586;9.692;2023-03-19T08:43:29;14.30;90.50
13992;DHT22;7070;53.586;9.692;2023-03-19T08:45:57;14.40;90.70
13992;DHT22;7070;53.586;9.692;2023-03-19T08:48:24;14.50;90.20
13992;DHT22;7070;53.586;9.692;2023-03-19T08:50:52;14.70;90.20
13992;DHT22;7070;53.586;9.692;2023-03-19T08:53:19;14.80;90.00
13992;DHT22;7070;53.586;9.692;2023-03-19T08:55:50;14.80;89.50
13992;DHT22;7070;53.586;9.692;2023-03-19T08:58:18;14.80;89.10
13992;DHT22;7070;53.586;9.692;2023-03-19T09:00:45;14.90;88.80
13992;DHT22;7070;53.586;9.692;2023-03-19T09:03:14;14.80;88.30
13992;DHT22;7070;53.586;9.692;2023-03-19T09:05:41;14.70;87.90
13992;DHT22;7070;53.586;9.692;2023-03-19T09:08:08;14.60;87.80
13992;DHT22;7070;53.586;9.692;2023-03-19T09:10:36;14.60;88.00
13992;DHT22;7070;53.586;9.692;2023-03-19T09:13:03;14.60;88.30
13992;DHT22;7070;53.586;9.692;2023-03-19T09:15:30;14.50;88.40
13992;DHT22;7070;53.586;9.692;2023-03-19T09:17:57;14.60;88.80
13992;DHT22;7070;53.586;9.692;2023-03-19T09:20:25;14.70;88.90
13992;DHT22;7070;53.586;9.692;2023-03-19T09:22:52;14.70;88.90
13992;DHT22;7070;53.586;9.692;2023-03-19T09:25:19;14.90;89.00
13992;DHT22;7070;53.586;9.692;2023-03-19T09:27:46;15.00;89.00
13992;DHT22;7070;53.586;9.692;2023-03-19T09:30:13;15.10;88.80
13992;DHT22;7070;53.586;9.692;2023-03-19T09:32:40;15.10;88.50
13992;DHT22;7070;53.586;9.692;2023-03-19T09:35:07;15.20;88.30
13992;DHT22;7070;53.586;9.692;2023-03-19T09:37:36;15.30;88.00
13992;DHT22;7070;53.586;9.692;2023-03-19T09:40:03;15.40;87.90
13992;DHT22;7070;53.586;9.692;2023-03-19T09:42:52;15.40;87.90
13992;DHT22;7070;53.586;9.692;2023-03-19T09:45:22;15.50;88.10
13992;DHT22;7070;53.586;9.692;2023-03-19T09:47:52;15.60;88.10
13992;DHT22;7070;53.586;9.692;2023-03-19T09:50:22;15.70;88.20
13992;DHT22;7070;53.586;9.692;2023-03-19T09:52:57;15.90;88.30
13992;DHT22;7070;53.586;9.692;2023-03-19T09:55:37;16.00;88.10
13992;DHT22;7070;53.586;9.692;2023-03-19T09:58:11;16.20;88.00
13992;DHT22;7070;53.586;9.692;2023-03-19T10:00:39;16.40;87.80
13992;DHT22;7070;53.586;9.692;2023-03-19T10:03:19;16.50;87.30
13992;DHT22;7070;53.586;9.692;2023-03-19T10:05:55;16.70;87.10
13992;DHT22;7070;53.586;9.692;2023-03-19T10:08:45;16.80;86.70
13992;DHT22;7070;53.586;9.692;2023-03-19T10:11:26;16.90;86.50
13992;DHT22;7070;53.586;9.692;2023-03-19T10:14:11;17.00;86.30
13992;DHT22;7070;53.586;9.692;2023-03-19T10:16:44;17.10;86.10
13992;DHT22;7070;53.586;9.692;2023-03-19T10:19:17;17.20;86.80
13992;DHT22;7070;53.586;9.692;2023-03-19T10:21:49;17.30;86.00
13992;DHT22;7070;53.586;9.692;2023-03-19T10:24:23;17.50;86.10
13992;DHT22;7070;53.586;9.692;2023-03-19T10:26:57;17.60;86.00
13992;DHT22;7070;53.586;9.692;2023-03-19T10:29:24;17.80;86.00
13992;DHT22;7070;53.586;9.692;2023-03-19T10:31:58;17.90;85.60
13992;DHT22;7070;53.586;9.692;2023-03-19T10:34:29;18.10;85.80
13992;DHT22;7070;53.586;9.692;2023-03-19T10:37:01;18.30;85.40
13992;DHT22;7070;53.586;9.692;2023-03-19T10:39:31;18.50;85.20
13992;DHT22;7070;53.586;9.692;2023-03-19T10:42:15;18.60;85.20
13992;DHT22;7070;53.586;9.692;2023-03-19T10:44:47;18.80;85.20
13992;DHT22;7070;53.586;9.692;2023-03-19T10:47:16;18.90;84.70
13992;DHT22;7070;53.586;9.692;2023-03-19T10:49:44;19.10;84.50
13992;DHT22;7070;53.586;9.692;2023-03-19T10:52:18;19.30;84.30
13992;DHT22;7070;53.586;9.692;2023-03-19T10:54:54;19.40;84.00
13992;DHT22;7070;53.586;9.692;2023-03-19T10:57:24;19.50;83.30
13992;DHT22;7070;53.586;9.692;2023-03-19T10:59:51;19.60;82.20
13992;DHT22;7070;53.586;9.692;2023-03-19T11:02:21;19.60;81.40
13992;DHT22;7070;53.586;9.692;2023-03-19T11:04:48;19.60;81.40
13992;DHT22;7070;53.586;9.692;2023-03-19T11:07:18;19.50;81.20
13992;DHT22;7070;53.586;9.692;2023-03-19T11:09:48;19.50;81.40
13992;DHT22;7070;53.586;9.692;2023-03-19T11:12:18;19.50;81.10
13992;DHT22;7070;53.586;9.692;2023-03-19T11:14:46;19.50;81.20
13992;DHT22;7070;53.586;9.692;2023-03-19T11:17:20;19.50;81.00
13992;DHT22;7070;53.586;9.692;2023-03-19T11:19:50;19.50;81.00
13992;DHT22;7070;53.586;9.692;2023-03-19T11:22:20;19.40;80.80
13992;DHT22;7070;53.586;9.692;2023-03-19T11:24:51;19.40;80.90
13992;DHT22;7070;53.586;9.692;2023-03-19T11:27:26;19.40;80.80
13992;DHT22;7070;53.586;9.692;2023-03-19T11:29:54;19.40;80.80
13992;DHT22;7070;53.586;9.692;2023-03-19T11:32:44;19.40;80.70
13992;DHT22;7070;53.586;9.692;2023-03-19T11:35:21;19.40;80.90
13992;DHT22;7070;53.586;9.692;2023-03-19T11:37:53;19.40;80.40
13992;DHT22;7070;53.586;9.692;2023-03-19T11:40:30;19.40;80.30
13992;DHT22;7070;53.586;9.692;2023-03-19T11:43:35;19.40;80.60
13992;DHT22;7070;53.586;9.692;2023-03-19T11:46:12;19.50;80.60
13992;DHT22;7070;53.586;9.692;2023-03-19T11:48:58;19.50;80.30
13992;DHT22;7070;53.586;9.692;2023-03-19T11:51:34;19.60;80.60
13992;DHT22;7070;53.586;9.692;2023-03-19T11:54:07;19.70;80.30
13992;DHT22;7070;53.586;9.692;2023-03-19T11:56:42;19.70;79.70
13992;DHT22;7070;53.586;9.692;2023-03-19T11:59:31;19.80;80.70
13992;DHT22;7070;53.586;9.692;2023-03-19T12:02:30;19.80;79.70
13992;DHT22;7070;53.586;9.692;2023-03-19T12:05:20;19.90;79.30
13992;DHT22;7070;53.586;9.692;2023-03-19T12:07:59;19.90;79.20
13992;DHT22;7070;53.586;9.692;2023-03-19T12:10:41;19.90;79.20
13992;DHT22;7070;53.586;9.692;2023-03-19T12:13:19;19.90;78.60
13992;DHT22;7070;53.586;9.692;2023-03-19T12:15:57;19.80;78.50
13992;DHT22;7070;53.586;9.692;2023-03-19T12:18:50;19.70;77.80
13992;DHT22;7070;53.586;9.692;2023-03-19T12:21:27;19.70;77.70
13992;DHT22;7070;53.586;9.692;2023-03-19T12:24:02;19.60;78.10
13992;DHT22;7070;53.586;9.692;2023-03-19T12:26:39;19.50;78.10
13992;DHT22;7070;53.586;9.692;2023-03-19T12:29:19;19.40;78.40
13992;DHT22;7070;53.586;9.692;2023-03-19T12:32:03;19.40;78.40
13992;DHT22;7070;53.586;9.692;2023-03-19T12:34:38;19.30;78.20
13992;DHT22;7070;53.586;9.692;2023-03-19T12:37:14;19.20;78.10
13992;DHT22;7070;53.586;9.692;2023-03-19T12:39:47;19.20;78.20
13992;DHT22;7070;53.586;9.692;2023-03-19T12:42:18;19.10;78.00
13992;DHT22;7070;53.586;9.692;2023-03-19T12:44:51;19.10;78.80
13992;DHT22;7070;53.586;9.692;2023-03-19T12:47:23;19.00;78.20
13992;DHT22;7070;53.586;9.692;2023-03-19T12:49:53;19.00;78.20
13992;DHT22;7070;53.586;9.692;2023-03-19T12:52:23;19.00;78.00
13992;DHT22;7070;53.586;9.692;2023-03-19T12:54:55;18.90;78.10
13992;DHT22;7070;53.586;9.692;2023-03-19T12:57:33;18.90;78.00
13992;DHT22;7070;53.586;9.692;2023-03-19T13:00:08;18.90;77.90
13992;DHT22;7070;53.586;9.692;2023-03-19T13:02:41;18.80;77.90
13992;DHT22;7070;53.586;9.692;2023-03-19T13:05:16;18.70;78.20
13992;DHT22;7070;53.586;9.692;2023-03-19T13:07:53;18.60;78.10
13992;DHT22;7070;53.586;9.692;2023-03-19T13:10:23;18.60;78.10
13992;DHT22;7070;53.586;9.692;2023-03-19T13:12:51;18.60;78.30
13992;DHT22;7070;53.586;9.692;2023-03-19T13:15:26;18.60;78.50
13992;DHT22;7070;53.586;9.692;2023-03-19T13:18:01;18.60;78.70
13992;DHT22;7070;53.586;9.692;2023-03-19T13:20:41;18.60;78.80
13992;DHT22;7070;53.586;9.692;2023-03-19T13:23:13;18.60;78.80
13992;DHT22;7070;53.586;9.692;2023-03-19T13:25:45;18.60;78.50
13992;DHT22;7070;53.586;9.692;2023-03-19T13:28:21;18.70;78.50
13992;DHT22;7070;53.586;9.692;2023-03-19T13:31:03;18.60;78.50
13992;DHT22;7070;53.586;9.692;2023-03-19T13:33:32;18.60;78.50
13992;DHT22;7070;53.586;9.692;2023-03-19T13:36:01;18.60;78.10
13992;DHT22;7070;53.586;9.692;2023-03-19T13:38:36;18.60;78.20
13992;DHT22;7070;53.586;9.692;2023-03-19T13:41:22;18.60;78.50
13992;DHT22;7070;53.586;9.692;2023-03-19T13:43:53;18.60;78.40
13992;DHT22;7070;53.586;9.692;2023-03-19T13:46:36;18.60;78.50
13992;DHT22;7070;53.586;9.692;2023-03-19T13:49:27;18.60;78.60
13992;DHT22;7070;53.586;9.692;2023-03-19T13:51:57;18.60;78.90
13992;DHT22;7070;53.586;9.692;2023-03-19T13:54:33;18.60;78.70
13992;DHT22;7070;53.586;9.692;2023-03-19T14:03:21;18.70;78.70
13992;DHT22;7070;53.586;9.692;2023-03-19T14:05:51;18.70;78.70
13992;DHT22;7070;53.586;9.692;2023-03-19T14:08:20;18.80;78.60
13992;DHT22;7070;53.586;9.692;2023-03-19T14:10:49;18.80;78.40
13992;DHT22;7070;53.586;9.692;2023-03-19T14:13:24;18.80;78.00
13992;DHT22;7070;53.586;9.692;2023-03-19T14:16:00;18.80;77.80
13992;DHT22;7070;53.586;9.692;2023-03-19T14:18:30;18.70;77.80
13992;DHT22;7070;53.586;9.692;2023-03-19T14:20:59;18.60;77.70
13992;DHT22;7070;53.586;9.692;2023-03-19T14:23:28;18.40;77.80
13992;DHT22;7070;53.586;9.692;2023-03-19T14:26:05;18.30;78.00
13992;DHT22;7070;53.586;9.692;2023-03-19T14:28:48;18.30;78.20
13992;DHT22;7070;53.586;9.692;2023-03-19T14:31:21;18.20;78.50
13992;DHT22;7070;53.586;9.692;2023-03-19T14:33:54;18.10;78.40
13992;DHT22;7070;53.586;9.692;2023-03-19T14:36:22;18.10;78.70
13992;DHT22;7070;53.586;9.692;2023-03-19T14:38:51;18.10;78.60
13992;DHT22;7070;53.586;9.692;2023-03-19T14:41:21;18.10;78.60
13992;DHT22;7070;53.586;9.692;2023-03-19T14:44:22;18.00;78.50
13992;DHT22;7070;53.586;9.692;2023-03-19T14:47:09;18.00;78.70
13992;DHT22;7070;53.586;9.692;2023-03-19T14:49:56;18.00;78.90
13992;DHT22;7070;53.586;9.692;2023-03-19T14:52:26;17.80;78.60
13992;DHT22;7070;53.586;9.692;2023-03-19T14:54:58;17.80;78.60
13992;DHT22;7070;53.586;9.692;2023-03-19T14:57:26;17.70;78.80
13992;DHT22;7070;53.586;9.692;2023-03-19T14:59:54;17.60;78.70
13992;DHT22;7070;53.586;9.692;2023-03-19T15:02:32;17.60;79.00
13992;DHT22;7070;53.586;9.692;2023-03-19T15:05:04;17.50;79.10
13992;DHT22;7070;53.586;9.692;2023-03-19T15:07:34;17.50;79.30
13992;DHT22;7070;53.586;9.692;2023-03-19T15:10:05;17.40;79.20
13992;DHT22;7070;53.586;9.692;2023-03-19T15:12:48;17.30;79.10
13992;DHT22;7070;53.586;9.692;2023-03-19T15:15:23;17.30;79.40
13992;DHT22;7070;53.586;9.692;2023-03-19T15:17:58;17.20;79.30
13992;DHT22;7070;53.586;9.692;2023-03-19T15:20:32;17.20;79.20
13992;DHT22;7070;53.586;9.692;2023-03-19T15:23:00;17.10;79.40
13992;DHT22;7070;53.586;9.692;2023-03-19T15:25:28;17.10;79.20
13992;DHT22;7070;53.586;9.692;2023-03-19T15:28:06;17.00;79.10
13992;DHT22;7070;53.586;9.692;2023-03-19T15:30:34;16.90;79.20
13992;DHT22;7070;53.586;9.692;2023-03-19T15:33:01;16.80;79.00
13992;DHT22;7070;53.586;9.692;2023-03-19T15:35:31;16.70;79.00
13992;DHT22;7070;53.586;9.692;2023-03-19T15:38:00;16.60;79.10
13992;DHT22;7070;53.586;9.692;2023-03-19T15:40:30;16.50;79.20
13992;DHT22;7070;53.586;9.692;2023-03-19T15:42:59;16.50;79.70
13992;DHT22;7070;53.586;9.692;2023-03-19T15:45:28;16.50;79.90
13992;DHT22;7070;53.586;9.692;2023-03-19T15:47:57;16.40;80.00
13992;DHT22;7070;53.586;9.692;2023-03-19T15:50:31;16.40;80.20
13992;DHT22;7070;53.586;9.692;2023-03-19T15:53:02;16.50;80.40
13992;DHT22;7070;53.586;9.692;2023-03-19T15:55:32;16.50;80.30
13992;DHT22;7070;53.586;9.692;2023-03-19T15:58:05;16.50;80.20
13992;DHT22;7070;53.586;9.692;2023-03-19T16:00:35;16.50;80.00
13992;DHT22;7070;53.586;9.692;2023-03-19T16:03:04;16.50;79.90
13992;DHT22;7070;53.586;9.692;2023-03-19T16:05:34;16.50;80.10
13992;DHT22;7070;53.586;9.692;2023-03-19T16:08:06;16.40;80.00
13992;DHT22;7070;53.586;9.692;2023-03-19T16:10:36;16.50;80.00
13992;DHT22;7070;53.586;9.692;2023-03-19T16:13:21;16.40;79.70
13992;DHT22;7070;53.586;9.692;2023-03-19T16:15:53;16.20;79.40
13992;DHT22;7070;53.586;9.692;2023-03-19T16:18:22;16.20;79.40